Tuesday, January 16, 2018, 12:20 PM EST
Back to Local

KFDK, Frederick, Frederick Municipal Airport

Location: Frederick, MD, United States Lat: 39.417
Local Time: 12:20 PM EST (17:20 GMT) Lon: -77.374
Time Zone: US/Eastern Elev: 301 ft

Show me the last for .
Show Decoded

2018-01-16 11:47 METAR KFDK 161647Z 00000KT 7SM SCT020 OVC075 01/M05 A3047 =
2018-01-16 10:47 METAR KFDK 161547Z 00000KT 7SM BKN018 OVC075 01/M05 A3049 =
2018-01-16 09:47 METAR KFDK 161447Z 00000KT 5SM BR OVC012 00/M04 A3049 =
2018-01-16 08:47 METAR KFDK 161347Z 00000KT 3SM BR OVC010 M01/M04 A3050 =
2018-01-16 07:47 METAR KFDK 161247Z 00000KT 3SM BR OVC010 M02/M03 A3049 =
2018-01-16 06:50 METAR KFDK 161150Z AUTO 00000KT 7SM OVC010 M01/M03 A3049 RMK AO2 =
2018-01-16 06:35 METAR KFDK 161135Z AUTO 00000KT 7SM OVC010 M01/M03 A3049 RMK AO2 =
2018-01-16 06:15 METAR KFDK 161115Z AUTO 00000KT 7SM OVC010 M02/M02 A3048 RMK AO2 =
2018-01-16 05:55 METAR KFDK 161055Z AUTO 00000KT 7SM SCT010 BKN060 OVC120 M01/M03 A3048 RMK AO2 =
2018-01-16 05:35 METAR KFDK 161035Z AUTO 00000KT 10SM SCT010 SCT031 OVC055 M01/M04 A3048 RMK AO2
                 =
2018-01-16 05:15 METAR KFDK 161015Z AUTO 00000KT 10SM SCT010 BKN050 OVC070 M01/M04 A3047 RMK AO2
                 =
2018-01-16 04:55 METAR KFDK 160955Z AUTO 00000KT 10SM SCT012 BKN044 OVC050 M01/M04 A3047 RMK AO2
                 =
2018-01-16 04:35 METAR KFDK 160935Z AUTO 00000KT 10SM OVC012 M01/M04 A3047 RMK AO2 =
2018-01-16 04:15 METAR KFDK 160915Z AUTO 22003KT 10SM OVC010 M01/M05 A3048 RMK AO2 =
2018-01-16 03:55 METAR KFDK 160855Z AUTO 00000KT 10SM OVC010 M01/M05 A3047 RMK AO2 =
2018-01-16 03:35 METAR KFDK 160835Z AUTO 00000KT 10SM OVC008 M02/M06 A3047 RMK AO2 =
2018-01-16 03:15 METAR KFDK 160815Z AUTO 00000KT 10SM OVC010 M02/M06 A3048 RMK AO2 =
2018-01-16 02:55 METAR KFDK 160755Z AUTO 00000KT 10SM OVC010 M02/M06 A3047 RMK AO2 =
2018-01-16 02:35 METAR KFDK 160735Z AUTO 00000KT 10SM OVC010 M02/M07 A3048 RMK AO2 =
2018-01-16 02:15 METAR KFDK 160715Z AUTO 00000KT 10SM OVC012 M02/M07 A3048 RMK AO2 =
2018-01-16 01:55 METAR KFDK 160655Z AUTO 00000KT 10SM OVC012 M02/M07 A3048 RMK AO2 =
2018-01-16 01:35 METAR KFDK 160635Z AUTO 00000KT 10SM OVC012 M02/M07 A3047 RMK AO2 =
2018-01-16 01:15 METAR KFDK 160615Z AUTO 00000KT 10SM OVC012 M02/M07 A3048 RMK AO2 =
2018-01-16 00:55 METAR KFDK 160555Z AUTO 00000KT 10SM OVC014 M02/M07 A3047 RMK AO2 =
2018-01-16 00:35 METAR KFDK 160535Z AUTO 00000KT 10SM OVC014 M02/M07 A3048 RMK AO2 =
2018-01-16 00:15 METAR KFDK 160515Z AUTO 00000KT 10SM OVC014 M02/M07 A3048 RMK AO2 =
2018-01-15 23:55 METAR KFDK 160455Z AUTO 00000KT 10SM OVC016 M02/M07 A3048 RMK AO2 =
2018-01-15 23:35 METAR KFDK 160435Z AUTO 00000KT 10SM OVC018 M02/M07 A3050 RMK AO2 =
2018-01-15 23:15 METAR KFDK 160415Z AUTO 36003KT 10SM OVC018 M02/M07 A3052 RMK AO2 =
2018-01-15 22:55 METAR KFDK 160355Z AUTO 00000KT 10SM OVC018 M02/M07 A3052 RMK AO2 =
2018-01-15 22:35 METAR KFDK 160335Z AUTO 35003KT 10SM OVC018 M02/M07 A3051 RMK AO2 =
2018-01-15 22:15 METAR KFDK 160315Z AUTO 34003KT 10SM OVC018 M02/M07 A3050 RMK AO2 =
2018-01-15 21:55 METAR KFDK 160255Z AUTO 00000KT 10SM OVC018 M02/M07 A3049 RMK AO2 =
2018-01-15 21:35 METAR KFDK 160235Z AUTO 04003KT 10SM OVC018 M02/M08 A3050 RMK AO2 =
2018-01-15 21:15 METAR KFDK 160215Z AUTO 00000KT 10SM OVC018 M02/M08 A3051 RMK AO2 =
2018-01-15 20:55 METAR KFDK 160155Z AUTO 00000KT 10SM OVC018 M02/M08 A3052 RMK AO2 =
2018-01-15 20:50 METAR KFDK 160150Z 00000KT 10SM OVC018 M02/M08 A3052 =
2018-01-15 19:47 METAR KFDK 160047Z VRB03KT 10SM OVC020 M03/M08 A3052 =
2018-01-15 18:47 METAR KFDK 152347Z VRB03KT 10SM OVC022 M03/M09 A3051 =
2018-01-15 17:47 METAR KFDK 152247Z 00000KT 10SM BKN024 M03/M09 A3051 =
2018-01-15 16:51 METAR KFDK 152151Z 00000KT 10SM SKC M02/M09 A3051 =
2018-01-15 15:50 METAR KFDK 152050Z 00000KT 10SM SCT020 M02/M09 A3050 =
2018-01-15 14:47 METAR KFDK 151947Z 00000KT 10SM OVC022 M02/M10 A3050 =
2018-01-15 13:47 METAR KFDK 151847Z 00000KT 10SM SCT028 OVC120 M03/M11 A3053 =
2018-01-15 12:47 METAR KFDK 151747Z VRB03KT 10SM OVC029 M04/M12 A3056 =

Support USWX by starting your Amazon purchase here.